createdAt,value
2018-06-20T00:01:32.390Z,94562.98
2018-06-20T00:04:00.063Z,94556.11
2018-06-20T00:06:27.829Z,94560.60
2018-06-20T00:08:55.574Z,94556.05
2018-06-20T00:11:24.357Z,94556.29
2018-06-20T00:13:53.058Z,94553.19
2018-06-20T00:16:20.739Z,94549.69
2018-06-20T00:18:48.680Z,94549.08
2018-06-20T00:21:16.383Z,94548.03
2018-06-20T00:23:44.176Z,94546.81
2018-06-20T00:26:11.875Z,94545.84
2018-06-20T00:28:39.693Z,94548.03
2018-06-20T00:31:07.505Z,94545.03
2018-06-20T00:33:35.206Z,94545.31
2018-06-20T00:36:03.381Z,94549.70
2018-06-20T00:38:31.315Z,94534.66
2018-06-20T00:40:59.289Z,94535.38
2018-06-20T00:43:26.956Z,94537.06
2018-06-20T00:45:54.623Z,94533.63
2018-06-20T00:48:22.302Z,94527.97
2018-06-20T00:50:50.033Z,94525.48
2018-06-20T00:53:17.741Z,94523.11
2018-06-20T00:55:50.952Z,94525.77
2018-06-20T00:58:18.833Z,94528.11
2018-06-20T01:00:46.538Z,94526.65
2018-06-20T01:03:14.282Z,94525.00
2018-06-20T01:05:42.014Z,94519.37
2018-06-20T01:08:09.674Z,94522.02
2018-06-20T01:10:37.375Z,94515.23
2018-06-20T01:13:05.072Z,94521.10
2018-06-20T01:15:32.802Z,94524.91
2018-06-20T01:18:00.488Z,94520.64
2018-06-20T01:20:28.177Z,94520.64
2018-06-20T01:22:55.879Z,94521.08
2018-06-20T01:25:23.562Z,94524.67
2018-06-20T01:27:51.217Z,94521.89
2018-06-20T01:30:18.910Z,94522.88
2018-06-20T01:32:46.599Z,94523.56
2018-06-20T01:35:14.289Z,94520.70
2018-06-20T01:37:42.006Z,94519.22
2018-06-20T01:40:09.678Z,94518.30
2018-06-20T01:42:37.365Z,94520.30
2018-06-20T01:45:05.038Z,94517.81
2018-06-20T01:47:32.805Z,94516.80
2018-06-20T01:50:00.527Z,94512.77
2018-06-20T01:52:28.194Z,94516.62
2018-06-20T01:54:55.887Z,94515.45
2018-06-20T01:57:23.590Z,94513.30
2018-06-20T01:59:51.259Z,94510.92
2018-06-20T02:02:18.938Z,94510.48
2018-06-20T02:04:46.613Z,94504.84
2018-06-20T02:07:14.323Z,94505.39
2018-06-20T02:09:42.015Z,94502.00
2018-06-20T02:12:09.674Z,94506.23
2018-06-20T02:14:37.367Z,94508.70
2018-06-20T02:17:05.045Z,94501.78
2018-06-20T02:19:32.786Z,94500.63
2018-06-20T02:22:00.453Z,94500.59
2018-06-20T02:24:28.139Z,94496.13
2018-06-20T02:26:55.846Z,94495.08
2018-06-20T02:29:23.549Z,94489.03
2018-06-20T02:31:51.216Z,94491.45
2018-06-20T02:34:18.883Z,94490.45
2018-06-20T02:36:46.619Z,94486.61
2018-06-20T02:39:14.218Z,94484.78
2018-06-20T02:41:41.917Z,94487.94
2018-06-20T02:44:09.575Z,94487.14
2018-06-20T02:46:37.267Z,94486.83
2018-06-20T02:49:05.134Z,94486.77
2018-06-20T02:51:32.815Z,94492.34
2018-06-20T02:54:00.467Z,94489.61
2018-06-20T02:56:28.436Z,94492.99
2018-06-20T02:58:56.095Z,94491.55
2018-06-20T03:01:23.767Z,94493.88
2018-06-20T03:03:51.456Z,94489.48
2018-06-20T03:06:19.114Z,94492.13
2018-06-20T03:08:51.333Z,94491.34
2018-06-20T03:11:19.026Z,94491.55
2018-06-20T03:13:46.727Z,94493.39
2018-06-20T03:16:14.418Z,94490.13
2018-06-20T03:18:42.106Z,94493.61
2018-06-20T03:21:09.781Z,94484.47
2018-06-20T03:23:37.455Z,94489.77
2018-06-20T03:26:05.141Z,94495.05
2018-06-20T03:28:32.831Z,94494.16
2018-06-20T03:31:00.524Z,94496.19
2018-06-20T03:33:28.251Z,94491.20
2018-06-20T03:35:55.966Z,94488.16
2018-06-20T03:38:23.711Z,94490.00
2018-06-20T03:40:51.430Z,94483.08
2018-06-20T03:43:19.078Z,94486.73
2018-06-20T03:45:46.774Z,94491.94
2018-06-20T03:48:14.423Z,94489.87
2018-06-20T03:50:42.123Z,94486.34
2018-06-20T03:53:09.791Z,94486.31
2018-06-20T03:55:37.558Z,94489.76
2018-06-20T03:58:05.234Z,94485.47
2018-06-20T04:00:32.953Z,94487.30
2018-06-20T04:03:00.658Z,94478.06
2018-06-20T04:05:29.900Z,94480.96
2018-06-20T04:07:57.894Z,94481.36
2018-06-20T04:10:25.796Z,94483.13
2018-06-20T04:12:53.478Z,94484.84
2018-06-20T04:15:21.195Z,94485.41
2018-06-20T04:17:48.871Z,94482.52
2018-06-20T04:20:16.531Z,94481.09
2018-06-20T04:22:44.276Z,94471.88
2018-06-20T04:25:11.998Z,94469.51
2018-06-20T04:27:40.734Z,94471.06
2018-06-20T04:30:08.459Z,94472.08
2018-06-20T04:32:36.342Z,94472.72
2018-06-20T04:35:04.035Z,94471.83
2018-06-20T04:37:31.731Z,94465.06
2018-06-20T04:39:59.421Z,94465.11
2018-06-20T04:42:27.098Z,94462.70
2018-06-20T04:44:54.834Z,94463.84
2018-06-20T04:47:22.540Z,94454.30
2018-06-20T04:49:50.218Z,94457.09
2018-06-20T04:52:17.938Z,94450.15
2018-06-20T04:54:45.651Z,94448.93
2018-06-20T04:57:13.326Z,94452.23
2018-06-20T04:59:40.999Z,94451.38
2018-06-20T05:02:08.690Z,94445.25
2018-06-20T05:04:36.381Z,94448.08
2018-06-20T05:07:04.049Z,94445.91
2018-06-20T05:09:31.766Z,94442.77
2018-06-20T05:11:59.435Z,94447.41
2018-06-20T05:14:27.259Z,94450.02
2018-06-20T05:16:54.930Z,94447.01
2018-06-20T05:19:22.590Z,94448.83
2018-06-20T05:21:50.303Z,94441.25
2018-06-20T05:24:18.357Z,94448.62
2018-06-20T05:26:46.019Z,94453.03
2018-06-20T05:29:13.690Z,94452.14
2018-06-20T05:31:41.398Z,94453.23
2018-06-20T05:34:09.066Z,94456.65
2018-06-20T05:36:36.784Z,94451.46
2018-06-20T05:39:06.094Z,94445.91
2018-06-20T05:41:33.783Z,94448.37
2018-06-20T05:44:01.512Z,94445.84
2018-06-20T05:46:29.204Z,94449.59
2018-06-20T05:48:56.874Z,94447.47
2018-06-20T05:51:24.571Z,94453.45
2018-06-20T05:53:52.270Z,94452.97
2018-06-20T05:56:20.045Z,94454.83
2018-06-20T05:58:47.736Z,94456.38
2018-06-20T06:01:15.455Z,94450.13
2018-06-20T06:03:43.167Z,94444.69
2018-06-20T06:06:12.878Z,94444.78
2018-06-20T06:08:40.864Z,94446.84
2018-06-20T06:11:08.821Z,94448.10
2018-06-20T06:13:36.795Z,94448.66
2018-06-20T06:16:04.496Z,94444.52
2018-06-20T06:18:32.518Z,94446.30
2018-06-20T06:21:00.251Z,94449.60
2018-06-20T06:23:28.464Z,94451.04
2018-06-20T06:25:56.620Z,94451.30
2018-06-20T06:28:24.591Z,94452.72
2018-06-20T06:30:52.326Z,94444.37
2018-06-20T06:33:20.031Z,94446.17
2018-06-20T06:35:47.796Z,94445.27
2018-06-20T06:38:15.522Z,94446.11
2018-06-20T06:40:43.209Z,94444.84
2018-06-20T06:43:10.903Z,94445.09
2018-06-20T06:45:38.607Z,94434.35
2018-06-20T06:48:06.298Z,94443.46
2018-06-20T06:50:34.367Z,94445.48
2018-06-20T06:53:02.228Z,94443.23
2018-06-20T06:55:29.988Z,94444.72
2018-06-20T06:57:58.058Z,94447.61
2018-06-20T07:00:26.153Z,94439.40
2018-06-20T07:02:53.870Z,94436.66
2018-06-20T07:05:22.605Z,94440.21
2018-06-20T07:07:50.546Z,94436.18
2018-06-20T07:10:18.290Z,94428.84
2018-06-20T07:12:45.977Z,94430.14
2018-06-20T07:15:13.686Z,94424.00
2018-06-20T07:17:41.422Z,94424.86
2018-06-20T07:20:09.151Z,94426.34
2018-06-20T07:22:36.926Z,94434.34
2018-06-20T07:25:04.995Z,94432.88
2018-06-20T07:27:32.691Z,94429.92
2018-06-20T07:30:00.447Z,94429.98
2018-06-20T07:32:28.226Z,94439.27
2018-06-20T07:34:56.370Z,94427.03
2018-06-20T07:37:24.082Z,94422.44
2018-06-20T07:39:51.814Z,94431.05
2018-06-20T07:42:19.696Z,94427.28
2018-06-20T07:44:47.396Z,94426.02
2018-06-20T07:47:15.144Z,94423.21
2018-06-20T07:49:42.813Z,94420.51
2018-06-20T07:52:11.601Z,94426.16
2018-06-20T07:54:39.275Z,94428.23
2018-06-20T07:57:06.998Z,94421.95
2018-06-20T07:59:40.446Z,94424.02
2018-06-20T08:02:19.329Z,94421.70
2018-06-20T08:04:52.712Z,94417.03
2018-06-20T08:07:26.109Z,94415.20
2018-06-20T08:09:59.311Z,94418.31
2018-06-20T08:12:32.781Z,94413.82
2018-06-20T08:15:06.270Z,94413.28
2018-06-20T08:17:39.772Z,94412.88
2018-06-20T08:20:13.947Z,94412.31
2018-06-20T08:22:41.671Z,94404.64
2018-06-20T08:25:09.390Z,94407.70
2018-06-20T08:27:37.062Z,94403.86
2018-06-20T08:30:06.070Z,94405.96
2018-06-20T08:32:34.214Z,94410.92
2018-06-20T08:35:02.414Z,94403.52
2018-06-20T08:37:30.162Z,94409.98
2018-06-20T08:39:58.024Z,94408.52
2018-06-20T08:42:25.830Z,94399.00
2018-06-20T08:44:54.195Z,94405.33
2018-06-20T08:47:21.954Z,94398.23
2018-06-20T08:49:49.623Z,94404.22
2018-06-20T08:52:17.342Z,94410.34
2018-06-20T08:54:45.031Z,94406.77
2018-06-20T08:57:12.735Z,94408.69
2018-06-20T08:59:40.430Z,94400.16
2018-06-20T09:02:08.332Z,94393.52
2018-06-20T09:04:41.674Z,94401.83
2018-06-20T09:07:14.964Z,94402.64
2018-06-20T09:09:48.304Z,94396.02
2018-06-20T09:12:21.694Z,94394.51
2018-06-20T09:14:55.080Z,94398.75
2018-06-20T09:17:28.427Z,94395.55
2018-06-20T09:19:56.871Z,94396.47
2018-06-20T09:22:24.564Z,94385.54
2018-06-20T09:24:52.282Z,94391.38
2018-06-20T09:27:20.004Z,94389.88
2018-06-20T09:29:47.679Z,94386.70
2018-06-20T09:32:15.551Z,94384.71
2018-06-20T09:34:43.730Z,94382.05
2018-06-20T09:37:11.494Z,94380.69
2018-06-20T09:39:39.243Z,94387.55
2018-06-20T09:42:06.943Z,94382.88
2018-06-20T09:44:34.621Z,94389.57
2018-06-20T09:47:02.385Z,94388.44
2018-06-20T09:49:30.068Z,94384.64
2018-06-20T09:51:57.804Z,94391.69
2018-06-20T09:54:25.650Z,94388.04
2018-06-20T09:56:53.386Z,94386.16
2018-06-20T09:59:26.719Z,94379.47
2018-06-20T10:02:00.030Z,94378.81
2018-06-20T10:04:33.340Z,94373.19
2018-06-20T10:07:06.759Z,94380.25
2018-06-20T10:09:39.953Z,94373.38
2018-06-20T10:13:13.600Z,94375.03
2018-06-20T10:15:41.290Z,94369.70
2018-06-20T10:18:09.009Z,94371.97
2018-06-20T10:20:36.707Z,94367.31
2018-06-20T10:23:04.485Z,94369.77
2018-06-20T10:25:32.179Z,94370.91
2018-06-20T10:27:59.946Z,94360.81
2018-06-20T10:30:27.667Z,94367.84
2018-06-20T10:32:55.361Z,94361.62
2018-06-20T10:35:23.487Z,94354.52
2018-06-20T10:37:51.186Z,94356.59
2018-06-20T10:40:19.307Z,94363.20
2018-06-20T10:42:47.063Z,94354.58
2018-06-20T10:45:20.434Z,94347.70
2018-06-20T10:47:49.377Z,94348.41
2018-06-20T10:50:17.117Z,94346.15
2018-06-20T10:52:44.823Z,94340.09
2018-06-20T10:55:13.987Z,94339.29
2018-06-20T10:57:47.261Z,94345.34
2018-06-20T11:00:20.679Z,94345.78
2018-06-20T11:02:53.951Z,94341.80
2018-06-20T11:05:27.383Z,94345.42
2018-06-20T11:08:00.691Z,94340.22
2018-06-20T11:10:35.221Z,94336.70
2018-06-20T11:13:09.471Z,94336.25
2018-06-20T11:15:37.418Z,94343.00
2018-06-20T11:18:05.158Z,94330.42
2018-06-20T11:20:38.578Z,94334.77
2018-06-20T11:23:06.325Z,94328.45
2018-06-20T11:25:34.022Z,94328.39
2018-06-20T11:28:06.287Z,94328.43
2018-06-20T11:30:34.047Z,94324.55
2018-06-20T11:33:01.870Z,94321.95
2018-06-20T11:35:29.709Z,94314.63
2018-06-20T11:37:57.438Z,94318.03
2018-06-20T11:40:25.171Z,94313.53
2018-06-20T11:42:52.886Z,94309.03
2018-06-20T11:45:20.572Z,94311.32
2018-06-20T11:47:48.298Z,94300.50
2018-06-20T11:50:16.015Z,94303.17
2018-06-20T11:52:49.366Z,94304.95
2018-06-20T11:55:22.542Z,94302.16
2018-06-20T11:57:50.264Z,94300.58
2018-06-20T12:00:23.574Z,94295.77
2018-06-20T12:02:56.907Z,94299.45
2018-06-20T12:05:30.144Z,94294.66
2018-06-20T12:08:03.411Z,94292.77
2018-06-20T12:10:36.753Z,94294.97
2018-06-20T12:15:16.336Z,94292.02
2018-06-20T12:17:49.644Z,94290.11
2018-06-20T12:20:22.874Z,94290.11
2018-06-20T12:22:56.071Z,94282.48
2018-06-20T12:25:29.523Z,94276.08
2018-06-20T12:28:02.969Z,94284.29
2018-06-20T12:30:36.351Z,94278.06
2018-06-20T12:33:09.735Z,94274.22
2018-06-20T12:35:42.978Z,94274.85
2018-06-20T12:38:16.140Z,94272.89
2018-06-20T12:40:49.380Z,94269.75
2018-06-20T12:43:22.766Z,94268.14
2018-06-20T12:45:55.015Z,94264.71
2018-06-20T12:48:22.784Z,94263.22
2018-06-20T12:50:50.503Z,94259.53
2018-06-20T12:53:18.201Z,94265.30
2018-06-20T12:55:46.951Z,94261.83
2018-06-20T12:58:14.670Z,94262.20
2018-06-20T13:00:42.326Z,94251.77
2018-06-20T13:03:10.030Z,94248.20
2018-06-20T13:05:37.762Z,94250.31
2018-06-20T13:08:05.425Z,94250.16
2018-06-20T13:10:33.386Z,94244.63
2018-06-20T13:13:01.065Z,94239.96
2018-06-20T13:15:28.775Z,94238.59
2018-06-20T13:17:56.591Z,94229.25
2018-06-20T13:20:24.323Z,94238.25
2018-06-20T13:22:51.995Z,94243.28
2018-06-20T13:25:19.711Z,94238.58
2018-06-20T13:27:48.127Z,94231.23
2018-06-20T13:30:15.903Z,94230.70
2018-06-20T13:32:49.334Z,94224.44
2018-06-20T13:35:22.527Z,94223.73
2018-06-20T13:37:56.022Z,94230.35
2018-06-20T13:40:29.255Z,94223.63
2018-06-20T13:43:02.828Z,94226.47
2018-06-20T13:45:36.103Z,94223.95
2018-06-20T13:48:09.467Z,94221.86
2018-06-20T13:50:37.156Z,94224.23
2018-06-20T13:53:04.846Z,94218.06
2018-06-20T13:55:32.612Z,94216.36
2018-06-20T13:58:00.375Z,94217.45
2018-06-20T14:00:28.210Z,94217.58
2018-06-20T14:02:56.060Z,94216.20
2018-06-20T14:05:23.819Z,94212.73
2018-06-20T14:07:51.514Z,94212.12
2018-06-20T14:10:19.265Z,94205.22
2018-06-20T14:12:46.963Z,94207.39
2018-06-20T14:15:14.690Z,94204.29
2018-06-20T14:17:42.403Z,94201.63
2018-06-20T14:20:15.813Z,94206.16
2018-06-20T14:22:43.523Z,94203.60
2018-06-20T14:25:11.275Z,94203.33
2018-06-20T14:27:38.964Z,94194.83
2018-06-20T14:30:06.725Z,94196.36
2018-06-20T14:32:40.208Z,94195.27
2018-06-20T14:35:23.098Z,94193.98
2018-06-20T14:37:56.396Z,94186.80
2018-06-20T14:40:29.715Z,94187.45
2018-06-20T14:43:02.676Z,94186.51
2018-06-20T14:45:36.215Z,94188.20
2018-06-20T14:48:03.898Z,94184.79
2018-06-20T14:50:31.577Z,94176.94
2018-06-20T14:52:59.294Z,94189.97
2018-06-20T14:55:27.051Z,94177.16
2018-06-20T14:57:54.755Z,94178.95
2018-06-20T15:00:22.440Z,94175.91
2018-06-20T15:02:50.179Z,94174.23
2018-06-20T15:05:17.864Z,94178.39
2018-06-20T15:07:45.604Z,94169.04
2018-06-20T15:10:13.305Z,94172.17
2018-06-20T15:12:40.991Z,94175.89
2018-06-20T15:15:08.741Z,94166.48
2018-06-20T15:17:36.454Z,94170.65
2018-06-20T15:20:04.220Z,94171.33
2018-06-20T15:22:37.679Z,94172.58
2018-06-20T15:25:05.371Z,94169.14
2018-06-20T15:27:38.671Z,94162.69
2018-06-20T15:30:12.158Z,94157.39
2018-06-20T15:32:45.415Z,94154.43
2018-06-20T15:35:18.669Z,94148.81
2018-06-20T15:37:52.103Z,94151.16
2018-06-20T15:40:20.327Z,94147.83
2018-06-20T15:42:48.020Z,94145.45
2018-06-20T15:45:15.723Z,94142.02
2018-06-20T15:47:43.446Z,94142.17
2018-06-20T15:50:11.162Z,94138.17
2018-06-20T15:52:38.843Z,94140.88
2018-06-20T15:55:06.539Z,94133.26
2018-06-20T15:57:34.270Z,94141.52
2018-06-20T16:00:01.968Z,94136.80
2018-06-20T16:02:29.732Z,94134.93
2018-06-20T16:04:57.402Z,94130.63
2018-06-20T16:07:25.182Z,94140.74
2018-06-20T16:09:57.959Z,94131.77
2018-06-20T16:12:26.434Z,94132.45
2018-06-20T16:14:54.583Z,94133.52
2018-06-20T16:17:22.256Z,94132.11
2018-06-20T16:19:55.673Z,94124.94
2018-06-20T16:22:29.131Z,94124.48
2018-06-20T16:25:02.530Z,94118.55
2018-06-20T16:27:36.051Z,94116.58
2018-06-20T16:30:09.298Z,94114.88
2018-06-20T16:32:37.187Z,94122.08
2018-06-20T16:35:04.879Z,94116.74
2018-06-20T16:37:32.614Z,94115.81
2018-06-20T16:40:00.275Z,94112.98
2018-06-20T16:42:28.330Z,94119.86
2018-06-20T16:44:56.017Z,94115.97
2018-06-20T16:47:23.718Z,94114.16
2018-06-20T16:49:51.431Z,94105.55
2018-06-20T16:52:19.173Z,94107.25
2018-06-20T16:54:46.885Z,94104.13
2018-06-20T16:57:14.596Z,94113.17
2018-06-20T16:59:42.282Z,94110.16
2018-06-20T17:02:15.642Z,94112.22
2018-06-20T17:04:43.348Z,94106.88
2018-06-20T17:07:15.624Z,94106.45
2018-06-20T17:09:43.401Z,94110.05
2018-06-20T17:12:16.741Z,94119.08
2018-06-20T17:14:50.099Z,94111.77
2018-06-20T17:17:24.584Z,94107.00
2018-06-20T17:19:57.795Z,94113.11
2018-06-20T17:22:31.084Z,94112.96
2018-06-20T17:25:04.512Z,94108.45
2018-06-20T17:27:32.357Z,94107.37
2018-06-20T17:30:00.087Z,94107.89
2018-06-20T17:32:27.819Z,94110.87
2018-06-20T17:34:56.028Z,94108.61
2018-06-20T17:37:23.706Z,94110.48
2018-06-20T17:39:51.459Z,94100.17
2018-06-20T17:42:19.838Z,94102.61
2018-06-20T17:44:47.664Z,94107.17
2018-06-20T17:47:15.371Z,94107.97
2018-06-20T17:49:43.074Z,94109.86
2018-06-20T17:52:10.821Z,94104.60
2018-06-20T17:54:38.535Z,94098.97
2018-06-20T17:57:06.661Z,94109.94
2018-06-20T17:59:35.021Z,94106.92
2018-06-20T18:02:02.747Z,94106.25
2018-06-20T18:04:36.188Z,94113.14
2018-06-20T18:07:09.650Z,94102.28
2018-06-20T18:09:43.049Z,94102.36
2018-06-20T18:12:16.300Z,94098.66
2018-06-20T18:14:49.673Z,94101.09
2018-06-20T18:17:17.421Z,94100.14
2018-06-20T18:19:45.091Z,94103.78
2018-06-20T18:22:12.806Z,94107.11
2018-06-20T18:24:40.532Z,94102.59
2018-06-20T18:27:08.319Z,94097.06
2018-06-20T18:29:35.981Z,94102.72
2018-06-20T18:32:03.825Z,94108.20
2018-06-20T18:34:31.648Z,94102.38
2018-06-20T18:36:59.406Z,94100.98
2018-06-20T18:39:27.182Z,94097.00
2018-06-20T18:41:54.864Z,94101.93
2018-06-20T18:44:22.661Z,94104.23
2018-06-20T18:46:50.378Z,94097.27
2018-06-20T18:49:18.077Z,94096.96
2018-06-20T18:51:45.771Z,94094.19
2018-06-20T18:54:13.471Z,94099.69
2018-06-20T18:56:41.204Z,94095.45
2018-06-20T18:59:14.506Z,94092.14
2018-06-20T19:01:47.824Z,94096.53
2018-06-20T19:04:21.062Z,94088.92
2018-06-20T19:06:54.613Z,94098.14
2018-06-20T19:09:22.934Z,94100.36
2018-06-20T19:11:50.575Z,94097.52
2018-06-20T19:14:18.298Z,94097.99
2018-06-20T19:16:45.942Z,94104.94
2018-06-20T19:19:13.610Z,94095.94
2018-06-20T19:21:41.291Z,94102.35
2018-06-20T19:24:09.023Z,94099.24
2018-06-20T19:26:36.690Z,94099.39
2018-06-20T19:29:04.469Z,94103.54
2018-06-20T19:31:32.249Z,94105.44
2018-06-20T19:33:59.937Z,94109.92
2018-06-20T19:36:27.657Z,94114.00
2018-06-20T19:38:55.385Z,94118.05
2018-06-20T19:41:23.109Z,94124.17
2018-06-20T19:43:56.461Z,94123.38
2018-06-20T19:46:24.150Z,94119.73
2018-06-20T19:48:51.845Z,94119.80
2018-06-20T19:51:19.675Z,94120.64
2018-06-20T19:53:47.323Z,94124.97
2018-06-20T19:56:15.315Z,94134.43
2018-06-20T19:58:43.041Z,94141.17
2018-06-20T20:01:10.703Z,94139.08
2018-06-20T20:03:38.372Z,94144.16
2018-06-20T20:06:06.158Z,94145.73
2018-06-20T20:08:34.076Z,94135.87
2018-06-20T20:11:01.675Z,94142.32
2018-06-20T20:13:29.335Z,94145.59
2018-06-20T20:15:57.077Z,94144.56
2018-06-20T20:18:24.738Z,94148.83
2018-06-20T20:20:52.408Z,94145.09
2018-06-20T20:23:20.057Z,94146.98
2018-06-20T20:25:47.726Z,94148.88
2018-06-20T20:28:15.400Z,94147.27
2018-06-20T20:30:43.003Z,94143.26
2018-06-20T20:33:10.690Z,94139.77
2018-06-20T20:35:38.395Z,94141.91
2018-06-20T20:38:06.059Z,94136.53
2018-06-20T20:40:33.743Z,94138.16
2018-06-20T20:43:01.370Z,94140.03
2018-06-20T20:45:29.098Z,94142.44
2018-06-20T20:47:56.823Z,94139.22
2018-06-20T20:50:24.555Z,94140.84
2018-06-20T20:52:52.190Z,94138.67
2018-06-20T20:55:19.858Z,94142.97
2018-06-20T20:57:47.531Z,94141.91
2018-06-20T21:00:15.240Z,94143.48
2018-06-20T21:02:42.934Z,94148.25
2018-06-20T21:05:10.614Z,94151.47
2018-06-20T21:07:38.315Z,94146.06
2018-06-20T21:10:06.011Z,94151.41
2018-06-20T21:12:34.704Z,94150.33
2018-06-20T21:15:02.703Z,94147.66
2018-06-20T21:17:30.390Z,94143.12
2018-06-20T21:19:58.097Z,94143.67
2018-06-20T21:22:25.795Z,94147.18
2018-06-20T21:24:53.786Z,94149.89
2018-06-20T21:27:21.433Z,94148.33
2018-06-20T21:29:49.054Z,94147.77
2018-06-20T21:32:16.804Z,94146.16
2018-06-20T21:34:44.458Z,94147.22
2018-06-20T21:37:12.123Z,94143.15
2018-06-20T21:39:40.143Z,94142.96
2018-06-20T21:42:07.861Z,94138.13
2018-06-20T21:44:35.493Z,94134.27
2018-06-20T21:47:03.217Z,94139.05
2018-06-20T21:49:30.902Z,94140.67
2018-06-20T21:51:58.564Z,94145.24
2018-06-20T21:54:26.189Z,94135.28
2018-06-20T21:56:53.861Z,94142.25
2018-06-20T21:59:21.572Z,94139.52
2018-06-20T22:01:49.238Z,94141.52
2018-06-20T22:04:16.974Z,94143.09
2018-06-20T22:06:44.695Z,94135.47
2018-06-20T22:09:12.390Z,94131.54
2018-06-20T22:11:40.073Z,94131.99
2018-06-20T22:14:09.168Z,94132.58
2018-06-20T22:16:37.522Z,94125.25
2018-06-20T22:19:05.333Z,94129.33
2018-06-20T22:21:33.150Z,94125.84
2018-06-20T22:24:00.771Z,94123.88
2018-06-20T22:26:28.604Z,94123.42
2018-06-20T22:28:56.542Z,94121.31
2018-06-20T22:31:24.254Z,94115.47
2018-06-20T22:33:52.266Z,94117.48
2018-06-20T22:36:19.977Z,94113.91
2018-06-20T22:38:47.587Z,94106.70
2018-06-20T22:41:15.378Z,94104.48
2018-06-20T22:43:43.052Z,94100.27
2018-06-20T22:46:10.750Z,94106.63
2018-06-20T22:48:38.367Z,94100.72
2018-06-20T22:51:06.018Z,94095.48
2018-06-20T22:53:33.670Z,94094.12
2018-06-20T22:56:01.322Z,94094.89
2018-06-20T22:58:29.024Z,94089.80
2018-06-20T23:00:56.706Z,94088.95
2018-06-20T23:03:24.410Z,94093.34
2018-06-20T23:05:52.081Z,94086.28
2018-06-20T23:08:19.958Z,94083.89
2018-06-20T23:10:47.613Z,94078.20
2018-06-20T23:13:15.345Z,94082.52
2018-06-20T23:15:43.065Z,94078.63
2018-06-20T23:18:10.770Z,94071.07
2018-06-20T23:20:38.468Z,94072.81
2018-06-20T23:23:06.174Z,94064.13
2018-06-20T23:25:33.905Z,94059.52
2018-06-20T23:28:01.558Z,94065.59
2018-06-20T23:30:29.256Z,94058.07
2018-06-20T23:32:56.926Z,94054.34
2018-06-20T23:35:24.738Z,94062.92
2018-06-20T23:37:52.398Z,94057.58
2018-06-20T23:40:20.144Z,94058.92
2018-06-20T23:42:47.834Z,94054.84
2018-06-20T23:45:15.519Z,94055.08
2018-06-20T23:47:43.259Z,94055.59
2018-06-20T23:50:10.962Z,94051.27
2018-06-20T23:52:38.669Z,94051.51
2018-06-20T23:55:06.470Z,94056.27
2018-06-20T23:57:34.395Z,94058.37
